sensor_id;sensor_type;location;lat;lon;timestamp;P1;durP1;ratioP1;P2;durP2;ratioP2
23260;SDS011;11799;47.740;-3.390;2023-02-25T00:01:44;6.97;;;4.07;;
23260;SDS011;11799;47.740;-3.390;2023-02-25T00:04:10;10.40;;;4.50;;
23260;SDS011;11799;47.740;-3.390;2023-02-25T00:06:36;8.10;;;4.50;;
23260;SDS011;11799;47.740;-3.390;2023-02-25T00:09:02;7.75;;;4.57;;
23260;SDS011;11799;47.740;-3.390;2023-02-25T00:11:27;7.22;;;4.38;;
23260;SDS011;11799;47.740;-3.390;2023-02-25T00:13:54;7.03;;;4.72;;
23260;SDS011;11799;47.740;-3.390;2023-02-25T00:16:20;7.55;;;5.07;;
23260;SDS011;11799;47.740;-3.390;2023-02-25T00:18:46;10.27;;;4.35;;
23260;SDS011;11799;47.740;-3.390;2023-02-25T00:21:16;10.40;;;4.80;;
23260;SDS011;11799;47.740;-3.390;2023-02-25T00:23:46;9.75;;;4.57;;
23260;SDS011;11799;47.740;-3.390;2023-02-25T00:26:12;6.70;;;4.35;;
23260;SDS011;11799;47.740;-3.390;2023-02-25T00:28:38;10.48;;;5.15;;
23260;SDS011;11799;47.740;-3.390;2023-02-25T00:31:08;8.45;;;5.18;;
23260;SDS011;11799;47.740;-3.390;2023-02-25T00:33:35;10.35;;;4.80;;
23260;SDS011;11799;47.740;-3.390;2023-02-25T00:36:06;10.02;;;4.80;;
23260;SDS011;11799;47.740;-3.390;2023-02-25T00:38:33;9.43;;;5.30;;
23260;SDS011;11799;47.740;-3.390;2023-02-25T00:41:07;8.55;;;4.75;;
23260;SDS011;11799;47.740;-3.390;2023-02-25T00:43:37;6.25;;;4.68;;
23260;SDS011;11799;47.740;-3.390;2023-02-25T00:46:04;6.50;;;4.70;;
23260;SDS011;11799;47.740;-3.390;2023-02-25T00:48:30;10.30;;;4.85;;
23260;SDS011;11799;47.740;-3.390;2023-02-25T00:50:55;10.27;;;5.18;;
23260;SDS011;11799;47.740;-3.390;2023-02-25T00:53:21;7.78;;;5.10;;
23260;SDS011;11799;47.740;-3.390;2023-02-25T00:55:46;8.57;;;5.25;;
23260;SDS011;11799;47.740;-3.390;2023-02-25T00:58:12;8.85;;;5.25;;
23260;SDS011;11799;47.740;-3.390;2023-02-25T01:00:37;6.70;;;4.90;;
23260;SDS011;11799;47.740;-3.390;2023-02-25T01:03:05;8.55;;;4.97;;
23260;SDS011;11799;47.740;-3.390;2023-02-25T01:05:30;8.63;;;5.35;;
23260;SDS011;11799;47.740;-3.390;2023-02-25T01:07:56;10.15;;;5.25;;
23260;SDS011;11799;47.740;-3.390;2023-02-25T01:10:22;7.43;;;4.78;;
23260;SDS011;11799;47.740;-3.390;2023-02-25T01:12:48;10.20;;;5.28;;
23260;SDS011;11799;47.740;-3.390;2023-02-25T01:15:14;7.47;;;4.68;;
23260;SDS011;11799;47.740;-3.390;2023-02-25T01:17:39;8.77;;;5.03;;
23260;SDS011;11799;47.740;-3.390;2023-02-25T01:20:05;6.05;;;4.95;;
23260;SDS011;11799;47.740;-3.390;2023-02-25T01:22:36;8.85;;;4.35;;
23260;SDS011;11799;47.740;-3.390;2023-02-25T01:25:06;9.37;;;4.83;;
23260;SDS011;11799;47.740;-3.390;2023-02-25T01:27:36;8.60;;;4.50;;
23260;SDS011;11799;47.740;-3.390;2023-02-25T01:30:02;8.90;;;4.70;;
23260;SDS011;11799;47.740;-3.390;2023-02-25T01:32:28;10.05;;;5.00;;
23260;SDS011;11799;47.740;-3.390;2023-02-25T01:34:54;8.18;;;4.55;;
23260;SDS011;11799;47.740;-3.390;2023-02-25T01:37:20;6.40;;;4.97;;
23260;SDS011;11799;47.740;-3.390;2023-02-25T01:39:48;7.65;;;4.35;;
23260;SDS011;11799;47.740;-3.390;2023-02-25T01:42:16;6.55;;;4.38;;
23260;SDS011;11799;47.740;-3.390;2023-02-25T01:47:43;7.45;;;4.50;;
23260;SDS011;11799;47.740;-3.390;2023-02-25T01:50:13;9.48;;;4.07;;
23260;SDS011;11799;47.740;-3.390;2023-02-25T01:52:39;8.35;;;4.78;;
23260;SDS011;11799;47.740;-3.390;2023-02-25T01:55:06;8.73;;;4.20;;
23260;SDS011;11799;47.740;-3.390;2023-02-25T01:57:34;7.55;;;4.80;;
23260;SDS011;11799;47.740;-3.390;2023-02-25T02:00:01;9.40;;;4.82;;
23260;SDS011;11799;47.740;-3.390;2023-02-25T02:02:39;10.43;;;5.13;;
23260;SDS011;11799;47.740;-3.390;2023-02-25T02:05:07;9.65;;;5.97;;
23260;SDS011;11799;47.740;-3.390;2023-02-25T02:07:32;11.07;;;5.57;;
23260;SDS011;11799;47.740;-3.390;2023-02-25T02:09:58;10.57;;;5.85;;
23260;SDS011;11799;47.740;-3.390;2023-02-25T02:12:25;10.27;;;5.95;;
23260;SDS011;11799;47.740;-3.390;2023-02-25T02:15:03;9.02;;;5.93;;
23260;SDS011;11799;47.740;-3.390;2023-02-25T02:17:34;11.65;;;6.30;;
23260;SDS011;11799;47.740;-3.390;2023-02-25T02:33:48;11.60;;;7.65;;
23260;SDS011;11799;47.740;-3.390;2023-02-25T02:45:04;14.18;;;7.40;;
23260;SDS011;11799;47.740;-3.390;2023-02-25T02:47:41;12.27;;;7.90;;
23260;SDS011;11799;47.740;-3.390;2023-02-25T02:50:13;14.02;;;8.68;;
23260;SDS011;11799;47.740;-3.390;2023-02-25T02:52:47;13.85;;;8.48;;
23260;SDS011;11799;47.740;-3.390;2023-02-25T02:55:21;16.77;;;8.60;;
23260;SDS011;11799;47.740;-3.390;2023-02-25T02:57:54;14.95;;;8.38;;
23260;SDS011;11799;47.740;-3.390;2023-02-25T03:00:26;14.82;;;8.30;;
23260;SDS011;11799;47.740;-3.390;2023-02-25T03:03:04;13.98;;;8.43;;
23260;SDS011;11799;47.740;-3.390;2023-02-25T03:05:40;15.65;;;7.78;;
23260;SDS011;11799;47.740;-3.390;2023-02-25T03:08:10;13.57;;;8.18;;
23260;SDS011;11799;47.740;-3.390;2023-02-25T03:10:39;19.83;;;8.43;;
23260;SDS011;11799;47.740;-3.390;2023-02-25T03:13:05;14.80;;;8.10;;
23260;SDS011;11799;47.740;-3.390;2023-02-25T03:15:31;12.10;;;8.25;;
23260;SDS011;11799;47.740;-3.390;2023-02-25T03:18:01;12.90;;;8.05;;
23260;SDS011;11799;47.740;-3.390;2023-02-25T03:20:36;11.85;;;8.07;;
23260;SDS011;11799;47.740;-3.390;2023-02-25T03:23:08;13.38;;;8.35;;
23260;SDS011;11799;47.740;-3.390;2023-02-25T03:25:40;12.63;;;7.88;;
23260;SDS011;11799;47.740;-3.390;2023-02-25T03:28:17;14.75;;;8.43;;
23260;SDS011;11799;47.740;-3.390;2023-02-25T03:30:57;14.05;;;7.63;;
23260;SDS011;11799;47.740;-3.390;2023-02-25T03:36:19;15.13;;;8.13;;
23260;SDS011;11799;47.740;-3.390;2023-02-25T03:38:51;12.82;;;8.32;;
23260;SDS011;11799;47.740;-3.390;2023-02-25T03:41:23;14.30;;;7.68;;
23260;SDS011;11799;47.740;-3.390;2023-02-25T03:43:54;13.63;;;7.97;;
23260;SDS011;11799;47.740;-3.390;2023-02-25T03:46:22;13.15;;;7.50;;
23260;SDS011;11799;47.740;-3.390;2023-02-25T03:48:50;14.27;;;7.88;;
23260;SDS011;11799;47.740;-3.390;2023-02-25T03:51:19;10.50;;;7.47;;
23260;SDS011;11799;47.740;-3.390;2023-02-25T03:53:49;14.05;;;8.63;;
23260;SDS011;11799;47.740;-3.390;2023-02-25T03:56:24;14.43;;;7.97;;
23260;SDS011;11799;47.740;-3.390;2023-02-25T03:58:50;14.02;;;7.85;;
23260;SDS011;11799;47.740;-3.390;2023-02-25T04:01:17;14.15;;;8.15;;
23260;SDS011;11799;47.740;-3.390;2023-02-25T04:03:47;12.70;;;8.00;;
23260;SDS011;11799;47.740;-3.390;2023-02-25T04:06:13;13.35;;;8.25;;
23260;SDS011;11799;47.740;-3.390;2023-02-25T04:08:39;14.20;;;8.18;;
23260;SDS011;11799;47.740;-3.390;2023-02-25T04:11:05;14.35;;;8.30;;
23260;SDS011;11799;47.740;-3.390;2023-02-25T04:13:31;13.63;;;8.65;;
23260;SDS011;11799;47.740;-3.390;2023-02-25T04:15:57;13.43;;;8.82;;
23260;SDS011;11799;47.740;-3.390;2023-02-25T04:18:23;12.45;;;8.23;;
23260;SDS011;11799;47.740;-3.390;2023-02-25T04:20:51;14.00;;;8.50;;
23260;SDS011;11799;47.740;-3.390;2023-02-25T04:23:17;11.90;;;7.63;;
23260;SDS011;11799;47.740;-3.390;2023-02-25T04:25:43;11.50;;;7.82;;
23260;SDS011;11799;47.740;-3.390;2023-02-25T04:28:09;14.05;;;8.40;;
23260;SDS011;11799;47.740;-3.390;2023-02-25T04:30:35;14.23;;;8.30;;
23260;SDS011;11799;47.740;-3.390;2023-02-25T04:33:01;13.90;;;7.45;;
23260;SDS011;11799;47.740;-3.390;2023-02-25T04:35:26;12.77;;;7.65;;
23260;SDS011;11799;47.740;-3.390;2023-02-25T04:37:52;11.80;;;7.43;;
23260;SDS011;11799;47.740;-3.390;2023-02-25T04:40:19;14.45;;;8.25;;
23260;SDS011;11799;47.740;-3.390;2023-02-25T04:42:46;12.95;;;7.32;;
23260;SDS011;11799;47.740;-3.390;2023-02-25T04:45:12;13.23;;;7.88;;
23260;SDS011;11799;47.740;-3.390;2023-02-25T04:47:38;16.73;;;7.78;;
23260;SDS011;11799;47.740;-3.390;2023-02-25T04:50:05;13.25;;;7.82;;
23260;SDS011;11799;47.740;-3.390;2023-02-25T04:52:33;11.57;;;7.35;;
23260;SDS011;11799;47.740;-3.390;2023-02-25T04:54:58;13.20;;;7.22;;
23260;SDS011;11799;47.740;-3.390;2023-02-25T04:57:24;13.52;;;7.30;;
23260;SDS011;11799;47.740;-3.390;2023-02-25T04:59:49;13.15;;;8.00;;
23260;SDS011;11799;47.740;-3.390;2023-02-25T05:02:15;10.27;;;7.65;;
23260;SDS011;11799;47.740;-3.390;2023-02-25T05:04:41;14.05;;;7.07;;
23260;SDS011;11799;47.740;-3.390;2023-02-25T05:07:06;14.65;;;7.47;;
23260;SDS011;11799;47.740;-3.390;2023-02-25T05:09:32;13.43;;;7.20;;
23260;SDS011;11799;47.740;-3.390;2023-02-25T05:11:59;14.43;;;7.32;;
23260;SDS011;11799;47.740;-3.390;2023-02-25T05:14:25;11.15;;;7.13;;
23260;SDS011;11799;47.740;-3.390;2023-02-25T05:16:50;10.43;;;6.68;;
23260;SDS011;11799;47.740;-3.390;2023-02-25T05:19:17;12.00;;;6.95;;
23260;SDS011;11799;47.740;-3.390;2023-02-25T05:21:48;14.00;;;7.18;;
23260;SDS011;11799;47.740;-3.390;2023-02-25T05:24:15;13.70;;;7.57;;
23260;SDS011;11799;47.740;-3.390;2023-02-25T05:26:41;13.77;;;7.22;;
23260;SDS011;11799;47.740;-3.390;2023-02-25T05:29:07;12.27;;;7.07;;
23260;SDS011;11799;47.740;-3.390;2023-02-25T05:31:32;14.75;;;6.60;;
23260;SDS011;11799;47.740;-3.390;2023-02-25T05:33:58;12.82;;;6.78;;
23260;SDS011;11799;47.740;-3.390;2023-02-25T05:36:24;13.82;;;7.20;;
23260;SDS011;11799;47.740;-3.390;2023-02-25T05:38:52;13.75;;;6.45;;
23260;SDS011;11799;47.740;-3.390;2023-02-25T05:41:19;11.60;;;6.85;;
23260;SDS011;11799;47.740;-3.390;2023-02-25T05:43:45;12.00;;;6.32;;
23260;SDS011;11799;47.740;-3.390;2023-02-25T05:46:10;10.85;;;6.57;;
23260;SDS011;11799;47.740;-3.390;2023-02-25T05:48:41;14.05;;;6.97;;
23260;SDS011;11799;47.740;-3.390;2023-02-25T05:51:11;14.63;;;6.80;;
23260;SDS011;11799;47.740;-3.390;2023-02-25T05:53:38;14.50;;;6.47;;
23260;SDS011;11799;47.740;-3.390;2023-02-25T05:56:10;13.07;;;6.40;;
23260;SDS011;11799;47.740;-3.390;2023-02-25T05:58:38;11.80;;;6.68;;
23260;SDS011;11799;47.740;-3.390;2023-02-25T06:01:11;12.05;;;6.57;;
23260;SDS011;11799;47.740;-3.390;2023-02-25T06:03:38;11.85;;;6.78;;
23260;SDS011;11799;47.740;-3.390;2023-02-25T06:06:04;13.80;;;6.78;;
23260;SDS011;11799;47.740;-3.390;2023-02-25T06:08:30;12.50;;;6.78;;
23260;SDS011;11799;47.740;-3.390;2023-02-25T06:10:57;12.20;;;6.70;;
23260;SDS011;11799;47.740;-3.390;2023-02-25T06:13:24;10.65;;;6.15;;
23260;SDS011;11799;47.740;-3.390;2023-02-25T06:15:50;10.60;;;5.93;;
23260;SDS011;11799;47.740;-3.390;2023-02-25T06:18:16;14.68;;;6.78;;
23260;SDS011;11799;47.740;-3.390;2023-02-25T06:20:42;14.38;;;6.78;;
23260;SDS011;11799;47.740;-3.390;2023-02-25T06:23:08;12.23;;;6.50;;
23260;SDS011;11799;47.740;-3.390;2023-02-25T06:25:33;10.45;;;6.57;;
23260;SDS011;11799;47.740;-3.390;2023-02-25T06:28:00;17.75;;;6.65;;
23260;SDS011;11799;47.740;-3.390;2023-02-25T06:30:26;16.05;;;6.72;;
23260;SDS011;11799;47.740;-3.390;2023-02-25T06:32:53;15.48;;;7.10;;
23260;SDS011;11799;47.740;-3.390;2023-02-25T06:35:19;13.75;;;6.53;;
23260;SDS011;11799;47.740;-3.390;2023-02-25T06:37:57;15.45;;;7.55;;
23260;SDS011;11799;47.740;-3.390;2023-02-25T06:40:24;13.07;;;6.80;;
23260;SDS011;11799;47.740;-3.390;2023-02-25T06:42:50;15.27;;;7.13;;
23260;SDS011;11799;47.740;-3.390;2023-02-25T06:45:16;14.02;;;6.53;;
23260;SDS011;11799;47.740;-3.390;2023-02-25T06:47:42;13.90;;;7.03;;
23260;SDS011;11799;47.740;-3.390;2023-02-25T06:50:08;13.45;;;6.95;;
23260;SDS011;11799;47.740;-3.390;2023-02-25T06:52:34;13.95;;;7.47;;
23260;SDS011;11799;47.740;-3.390;2023-02-25T06:54:59;13.00;;;7.18;;
23260;SDS011;11799;47.740;-3.390;2023-02-25T06:57:25;13.73;;;7.32;;
23260;SDS011;11799;47.740;-3.390;2023-02-25T06:59:51;12.30;;;7.35;;
23260;SDS011;11799;47.740;-3.390;2023-02-25T07:02:17;19.50;;;7.90;;
23260;SDS011;11799;47.740;-3.390;2023-02-25T07:04:43;16.48;;;7.45;;
23260;SDS011;11799;47.740;-3.390;2023-02-25T07:07:09;13.35;;;7.38;;
23260;SDS011;11799;47.740;-3.390;2023-02-25T07:09:35;14.38;;;7.80;;
23260;SDS011;11799;47.740;-3.390;2023-02-25T07:12:00;15.48;;;7.80;;
23260;SDS011;11799;47.740;-3.390;2023-02-25T07:14:26;14.63;;;8.05;;
23260;SDS011;11799;47.740;-3.390;2023-02-25T07:16:52;13.63;;;7.63;;
23260;SDS011;11799;47.740;-3.390;2023-02-25T07:19:17;15.77;;;7.72;;
23260;SDS011;11799;47.740;-3.390;2023-02-25T07:21:43;16.02;;;8.27;;
23260;SDS011;11799;47.740;-3.390;2023-02-25T07:24:10;19.40;;;8.55;;
23260;SDS011;11799;47.740;-3.390;2023-02-25T07:26:37;17.00;;;7.82;;
23260;SDS011;11799;47.740;-3.390;2023-02-25T07:29:04;14.10;;;7.88;;
23260;SDS011;11799;47.740;-3.390;2023-02-25T07:31:30;18.75;;;8.43;;
23260;SDS011;11799;47.740;-3.390;2023-02-25T07:33:56;19.05;;;8.43;;
23260;SDS011;11799;47.740;-3.390;2023-02-25T07:36:28;15.15;;;8.35;;
23260;SDS011;11799;47.740;-3.390;2023-02-25T07:39:00;13.90;;;8.43;;
23260;SDS011;11799;47.740;-3.390;2023-02-25T07:41:28;16.63;;;8.68;;
23260;SDS011;11799;47.740;-3.390;2023-02-25T07:44:00;18.15;;;8.82;;
23260;SDS011;11799;47.740;-3.390;2023-02-25T07:46:25;16.23;;;9.07;;
23260;SDS011;11799;47.740;-3.390;2023-02-25T07:48:51;15.05;;;8.43;;
23260;SDS011;11799;47.740;-3.390;2023-02-25T07:51:18;22.08;;;9.50;;
23260;SDS011;11799;47.740;-3.390;2023-02-25T07:53:46;14.18;;;8.80;;
23260;SDS011;11799;47.740;-3.390;2023-02-25T07:56:13;14.35;;;8.43;;
23260;SDS011;11799;47.740;-3.390;2023-02-25T07:58:40;16.50;;;8.82;;
23260;SDS011;11799;47.740;-3.390;2023-02-25T08:01:07;18.73;;;9.05;;
23260;SDS011;11799;47.740;-3.390;2023-02-25T08:03:33;15.43;;;9.07;;
23260;SDS011;11799;47.740;-3.390;2023-02-25T08:05:59;15.70;;;8.85;;
23260;SDS011;11799;47.740;-3.390;2023-02-25T08:08:27;16.23;;;8.93;;
23260;SDS011;11799;47.740;-3.390;2023-02-25T08:10:53;14.57;;;8.68;;
23260;SDS011;11799;47.740;-3.390;2023-02-25T08:13:18;18.48;;;8.82;;
23260;SDS011;11799;47.740;-3.390;2023-02-25T08:15:44;23.45;;;8.85;;
23260;SDS011;11799;47.740;-3.390;2023-02-25T08:18:10;17.83;;;8.93;;
23260;SDS011;11799;47.740;-3.390;2023-02-25T08:20:36;17.25;;;8.23;;
23260;SDS011;11799;47.740;-3.390;2023-02-25T08:23:02;17.65;;;8.50;;
23260;SDS011;11799;47.740;-3.390;2023-02-25T08:25:28;18.33;;;8.20;;
23260;SDS011;11799;47.740;-3.390;2023-02-25T08:27:54;17.27;;;7.95;;
23260;SDS011;11799;47.740;-3.390;2023-02-25T08:30:20;15.52;;;8.05;;
23260;SDS011;11799;47.740;-3.390;2023-02-25T08:32:46;15.82;;;7.57;;
23260;SDS011;11799;47.740;-3.390;2023-02-25T08:35:12;15.23;;;7.82;;
23260;SDS011;11799;47.740;-3.390;2023-02-25T08:37:39;16.42;;;7.63;;
23260;SDS011;11799;47.740;-3.390;2023-02-25T08:40:05;14.18;;;7.47;;
23260;SDS011;11799;47.740;-3.390;2023-02-25T08:42:37;13.60;;;7.65;;
23260;SDS011;11799;47.740;-3.390;2023-02-25T08:45:03;12.82;;;6.70;;
23260;SDS011;11799;47.740;-3.390;2023-02-25T08:47:29;15.82;;;6.55;;
23260;SDS011;11799;47.740;-3.390;2023-02-25T08:49:55;11.45;;;6.55;;
23260;SDS011;11799;47.740;-3.390;2023-02-25T08:52:20;12.98;;;7.03;;
23260;SDS011;11799;47.740;-3.390;2023-02-25T08:54:46;13.27;;;6.70;;
23260;SDS011;11799;47.740;-3.390;2023-02-25T08:57:12;14.57;;;5.82;;
23260;SDS011;11799;47.740;-3.390;2023-02-25T08:59:37;16.67;;;6.47;;
23260;SDS011;11799;47.740;-3.390;2023-02-25T09:02:03;13.43;;;5.90;;
23260;SDS011;11799;47.740;-3.390;2023-02-25T09:04:30;14.43;;;5.47;;
23260;SDS011;11799;47.740;-3.390;2023-02-25T09:06:58;14.98;;;6.45;;
23260;SDS011;11799;47.740;-3.390;2023-02-25T09:09:27;11.43;;;4.43;;
23260;SDS011;11799;47.740;-3.390;2023-02-25T09:11:53;14.02;;;5.38;;
23260;SDS011;11799;47.740;-3.390;2023-02-25T09:14:19;9.00;;;5.30;;
23260;SDS011;11799;47.740;-3.390;2023-02-25T09:16:45;9.75;;;4.75;;
23260;SDS011;11799;47.740;-3.390;2023-02-25T09:19:12;13.68;;;6.45;;
23260;SDS011;11799;47.740;-3.390;2023-02-25T09:21:39;10.30;;;4.97;;
23260;SDS011;11799;47.740;-3.390;2023-02-25T09:24:06;18.33;;;5.30;;
23260;SDS011;11799;47.740;-3.390;2023-02-25T09:26:33;8.48;;;4.22;;
23260;SDS011;11799;47.740;-3.390;2023-02-25T09:28:59;10.52;;;4.50;;
23260;SDS011;11799;47.740;-3.390;2023-02-25T09:31:25;11.52;;;3.75;;
23260;SDS011;11799;47.740;-3.390;2023-02-25T09:33:51;7.55;;;3.83;;
23260;SDS011;11799;47.740;-3.390;2023-02-25T09:36:18;8.98;;;4.30;;
23260;SDS011;11799;47.740;-3.390;2023-02-25T09:38:45;7.82;;;3.72;;
23260;SDS011;11799;47.740;-3.390;2023-02-25T09:44:09;8.10;;;3.72;;
23260;SDS011;11799;47.740;-3.390;2023-02-25T09:46:46;8.52;;;4.20;;
23260;SDS011;11799;47.740;-3.390;2023-02-25T09:49:23;7.80;;;3.67;;
23260;SDS011;11799;47.740;-3.390;2023-02-25T09:51:52;5.55;;;3.67;;
23260;SDS011;11799;47.740;-3.390;2023-02-25T09:54:41;7.78;;;4.03;;
23260;SDS011;11799;47.740;-3.390;2023-02-25T09:57:10;9.68;;;3.95;;
23260;SDS011;11799;47.740;-3.390;2023-02-25T09:59:43;9.88;;;4.30;;
23260;SDS011;11799;47.740;-3.390;2023-02-25T10:02:31;7.35;;;3.30;;
23260;SDS011;11799;47.740;-3.390;2023-02-25T10:05:06;8.27;;;3.75;;
23260;SDS011;11799;47.740;-3.390;2023-02-25T10:07:53;6.20;;;3.63;;
23260;SDS011;11799;47.740;-3.390;2023-02-25T10:10:47;6.90;;;3.47;;
23260;SDS011;11799;47.740;-3.390;2023-02-25T10:22:12;7.30;;;3.63;;
23260;SDS011;11799;47.740;-3.390;2023-02-25T10:24:57;5.20;;;3.10;;
23260;SDS011;11799;47.740;-3.390;2023-02-25T10:27:35;7.47;;;3.25;;
23260;SDS011;11799;47.740;-3.390;2023-02-25T10:32:39;5.65;;;3.03;;
23260;SDS011;11799;47.740;-3.390;2023-02-25T10:35:13;5.43;;;2.85;;
23260;SDS011;11799;47.740;-3.390;2023-02-25T10:37:50;9.65;;;4.43;;
23260;SDS011;11799;47.740;-3.390;2023-02-25T10:40:17;5.32;;;3.05;;
23260;SDS011;11799;47.740;-3.390;2023-02-25T10:42:45;6.00;;;3.08;;
23260;SDS011;11799;47.740;-3.390;2023-02-25T10:45:16;8.27;;;3.00;;
23260;SDS011;11799;47.740;-3.390;2023-02-25T10:47:46;5.70;;;2.97;;
23260;SDS011;11799;47.740;-3.390;2023-02-25T10:52:56;4.18;;;2.63;;
23260;SDS011;11799;47.740;-3.390;2023-02-25T10:55:45;4.25;;;2.58;;
23260;SDS011;11799;47.740;-3.390;2023-02-25T10:58:29;4.00;;;2.60;;
23260;SDS011;11799;47.740;-3.390;2023-02-25T11:03:30;5.63;;;3.13;;
23260;SDS011;11799;47.740;-3.390;2023-02-25T11:08:44;8.85;;;3.45;;
23260;SDS011;11799;47.740;-3.390;2023-02-25T11:11:18;4.35;;;2.42;;
23260;SDS011;11799;47.740;-3.390;2023-02-25T11:14:18;5.25;;;2.95;;
23260;SDS011;11799;47.740;-3.390;2023-02-25T11:16:39;5.20;;;2.80;;
23260;SDS011;11799;47.740;-3.390;2023-02-25T11:19:16;4.40;;;2.70;;
23260;SDS011;11799;47.740;-3.390;2023-02-25T11:21:47;6.50;;;2.80;;
23260;SDS011;11799;47.740;-3.390;2023-02-25T11:24:14;6.75;;;2.50;;
23260;SDS011;11799;47.740;-3.390;2023-02-25T11:26:43;2.88;;;2.28;;
23260;SDS011;11799;47.740;-3.390;2023-02-25T11:31:39;6.20;;;2.97;;
23260;SDS011;11799;47.740;-3.390;2023-02-25T11:34:14;4.55;;;3.13;;
23260;SDS011;11799;47.740;-3.390;2023-02-25T11:36:45;4.13;;;2.30;;
23260;SDS011;11799;47.740;-3.390;2023-02-25T11:39:22;5.43;;;2.63;;
23260;SDS011;11799;47.740;-3.390;2023-02-25T11:41:53;7.18;;;2.45;;
23260;SDS011;11799;47.740;-3.390;2023-02-25T11:44:24;6.93;;;2.53;;
23260;SDS011;11799;47.740;-3.390;2023-02-25T11:49:46;6.15;;;2.45;;
23260;SDS011;11799;47.740;-3.390;2023-02-25T11:52:12;5.75;;;3.00;;
23260;SDS011;11799;47.740;-3.390;2023-02-25T11:55:12;6.38;;;2.70;;
23260;SDS011;11799;47.740;-3.390;2023-02-25T11:58:08;8.00;;;2.70;;
23260;SDS011;11799;47.740;-3.390;2023-02-25T12:00:39;6.40;;;2.35;;
23260;SDS011;11799;47.740;-3.390;2023-02-25T12:23:19;8.00;;;2.80;;
23260;SDS011;11799;47.740;-3.390;2023-02-25T12:28:50;3.00;;;2.40;;
23260;SDS011;11799;47.740;-3.390;2023-02-25T12:34:08;4.63;;;2.60;;
23260;SDS011;11799;47.740;-3.390;2023-02-25T12:56:01;6.25;;;2.40;;
23260;SDS011;11799;47.740;-3.390;2023-02-25T12:58:30;6.65;;;3.50;;
23260;SDS011;11799;47.740;-3.390;2023-02-25T13:07:06;3.88;;;1.90;;
23260;SDS011;11799;47.740;-3.390;2023-02-25T13:09:54;5.18;;;1.90;;
23260;SDS011;11799;47.740;-3.390;2023-02-25T13:15:48;3.33;;;1.83;;
23260;SDS011;11799;47.740;-3.390;2023-02-25T13:23:53;6.03;;;2.10;;
23260;SDS011;11799;47.740;-3.390;2023-02-25T13:26:44;2.72;;;1.65;;
23260;SDS011;11799;47.740;-3.390;2023-02-25T13:32:29;9.32;;;2.20;;
23260;SDS011;11799;47.740;-3.390;2023-02-25T13:35:23;3.97;;;1.90;;
23260;SDS011;11799;47.740;-3.390;2023-02-25T13:49:01;4.22;;;1.88;;
23260;SDS011;11799;47.740;-3.390;2023-02-25T14:08:31;5.25;;;1.80;;
23260;SDS011;11799;47.740;-3.390;2023-02-25T14:13:51;5.07;;;2.17;;
23260;SDS011;11799;47.740;-3.390;2023-02-25T14:16:32;6.35;;;2.22;;
23260;SDS011;11799;47.740;-3.390;2023-02-25T14:24:45;4.90;;;2.28;;
23260;SDS011;11799;47.740;-3.390;2023-02-25T14:36:05;3.55;;;2.05;;
23260;SDS011;11799;47.740;-3.390;2023-02-25T14:38:59;6.78;;;2.33;;
23260;SDS011;11799;47.740;-3.390;2023-02-25T14:44:13;4.32;;;2.58;;
23260;SDS011;11799;47.740;-3.390;2023-02-25T14:47:01;6.35;;;2.40;;
23260;SDS011;11799;47.740;-3.390;2023-02-25T14:49:52;5.00;;;2.50;;
23260;SDS011;11799;47.740;-3.390;2023-02-25T14:52:25;5.70;;;2.28;;
23260;SDS011;11799;47.740;-3.390;2023-02-25T14:58:32;5.47;;;2.60;;
23260;SDS011;11799;47.740;-3.390;2023-02-25T15:04:07;6.15;;;2.65;;
23260;SDS011;11799;47.740;-3.390;2023-02-25T15:12:31;8.38;;;2.05;;
23260;SDS011;11799;47.740;-3.390;2023-02-25T15:20:43;4.78;;;2.13;;
23260;SDS011;11799;47.740;-3.390;2023-02-25T15:23:12;4.35;;;2.00;;
23260;SDS011;11799;47.740;-3.390;2023-02-25T15:25:48;4.65;;;2.25;;
23260;SDS011;11799;47.740;-3.390;2023-02-25T15:33:41;5.68;;;2.35;;
23260;SDS011;11799;47.740;-3.390;2023-02-25T15:43:52;4.53;;;2.47;;
23260;SDS011;11799;47.740;-3.390;2023-02-25T15:51:42;6.40;;;2.95;;
23260;SDS011;11799;47.740;-3.390;2023-02-25T15:56:58;6.20;;;2.40;;
23260;SDS011;11799;47.740;-3.390;2023-02-25T15:59:38;4.57;;;2.35;;
23260;SDS011;11799;47.740;-3.390;2023-02-25T16:04:50;4.60;;;2.65;;
23260;SDS011;11799;47.740;-3.390;2023-02-25T16:07:21;4.47;;;2.10;;
23260;SDS011;11799;47.740;-3.390;2023-02-25T16:09:56;4.25;;;2.08;;
23260;SDS011;11799;47.740;-3.390;2023-02-25T16:12:25;6.65;;;2.65;;
23260;SDS011;11799;47.740;-3.390;2023-02-25T16:14:52;3.20;;;2.10;;
23260;SDS011;11799;47.740;-3.390;2023-02-25T16:17:30;3.10;;;2.13;;
23260;SDS011;11799;47.740;-3.390;2023-02-25T16:20:00;4.70;;;2.10;;
23260;SDS011;11799;47.740;-3.390;2023-02-25T16:22:43;6.18;;;2.20;;
23260;SDS011;11799;47.740;-3.390;2023-02-25T16:25:14;3.53;;;1.85;;
23260;SDS011;11799;47.740;-3.390;2023-02-25T16:27:51;3.05;;;2.10;;
23260;SDS011;11799;47.740;-3.390;2023-02-25T16:30:36;6.40;;;2.65;;
23260;SDS011;11799;47.740;-3.390;2023-02-25T16:35:49;9.35;;;2.40;;
23260;SDS011;11799;47.740;-3.390;2023-02-25T16:38:34;6.15;;;2.35;;
23260;SDS011;11799;47.740;-3.390;2023-02-25T16:41:00;7.63;;;2.50;;
23260;SDS011;11799;47.740;-3.390;2023-02-25T16:43:28;5.53;;;2.30;;
23260;SDS011;11799;47.740;-3.390;2023-02-25T16:45:58;9.48;;;2.72;;
23260;SDS011;11799;47.740;-3.390;2023-02-25T16:48:29;6.30;;;2.33;;
23260;SDS011;11799;47.740;-3.390;2023-02-25T16:51:07;3.50;;;2.38;;
23260;SDS011;11799;47.740;-3.390;2023-02-25T16:53:39;5.80;;;2.35;;
23260;SDS011;11799;47.740;-3.390;2023-02-25T16:56:18;3.92;;;1.98;;
23260;SDS011;11799;47.740;-3.390;2023-02-25T16:58:59;6.82;;;2.63;;
23260;SDS011;11799;47.740;-3.390;2023-02-25T17:01:29;2.72;;;2.00;;
23260;SDS011;11799;47.740;-3.390;2023-02-25T17:04:00;6.20;;;2.40;;
23260;SDS011;11799;47.740;-3.390;2023-02-25T17:09:48;4.90;;;2.70;;
23260;SDS011;11799;47.740;-3.390;2023-02-25T17:12:19;8.90;;;2.33;;
23260;SDS011;11799;47.740;-3.390;2023-02-25T17:15:06;7.07;;;2.30;;
23260;SDS011;11799;47.740;-3.390;2023-02-25T17:17:40;5.45;;;2.60;;
23260;SDS011;11799;47.740;-3.390;2023-02-25T17:20:16;4.65;;;2.10;;
23260;SDS011;11799;47.740;-3.390;2023-02-25T17:22:47;6.90;;;2.75;;
23260;SDS011;11799;47.740;-3.390;2023-02-25T17:25:14;5.05;;;2.25;;
23260;SDS011;11799;47.740;-3.390;2023-02-25T17:27:42;5.35;;;2.28;;
23260;SDS011;11799;47.740;-3.390;2023-02-25T17:31:02;6.30;;;2.33;;
23260;SDS011;11799;47.740;-3.390;2023-02-25T17:33:24;7.18;;;2.80;;
23260;SDS011;11799;47.740;-3.390;2023-02-25T17:35:56;4.82;;;2.63;;
23260;SDS011;11799;47.740;-3.390;2023-02-25T17:38:24;6.78;;;2.97;;
23260;SDS011;11799;47.740;-3.390;2023-02-25T17:40:53;7.80;;;3.20;;
23260;SDS011;11799;47.740;-3.390;2023-02-25T17:43:38;8.35;;;3.13;;
23260;SDS011;11799;47.740;-3.390;2023-02-25T17:46:14;6.68;;;2.53;;
23260;SDS011;11799;47.740;-3.390;2023-02-25T17:48:51;6.30;;;2.83;;
23260;SDS011;11799;47.740;-3.390;2023-02-25T17:51:26;5.22;;;2.35;;
23260;SDS011;11799;47.740;-3.390;2023-02-25T17:54:06;4.40;;;2.38;;
23260;SDS011;11799;47.740;-3.390;2023-02-25T17:56:44;6.60;;;2.45;;
23260;SDS011;11799;47.740;-3.390;2023-02-25T17:59:28;6.60;;;2.45;;
23260;SDS011;11799;47.740;-3.390;2023-02-25T18:02:01;6.55;;;2.30;;
23260;SDS011;11799;47.740;-3.390;2023-02-25T18:07:20;6.30;;;2.88;;
23260;SDS011;11799;47.740;-3.390;2023-02-25T18:09:57;5.25;;;2.38;;
23260;SDS011;11799;47.740;-3.390;2023-02-25T18:12:29;6.25;;;2.40;;
23260;SDS011;11799;47.740;-3.390;2023-02-25T18:17:32;4.53;;;2.47;;
23260;SDS011;11799;47.740;-3.390;2023-02-25T18:20:01;8.25;;;3.28;;
23260;SDS011;11799;47.740;-3.390;2023-02-25T18:22:39;7.53;;;3.57;;
23260;SDS011;11799;47.740;-3.390;2023-02-25T18:28:00;7.13;;;2.47;;
23260;SDS011;11799;47.740;-3.390;2023-02-25T18:30:28;6.28;;;2.90;;